Time;durP1;ratioP1;P1;durP2;ratioP2;P2;SDS_P1;SDS_P2;PMS_P1;PMS_P2;Temp;Humidity;BMP_temperature;BMP_pressure;BME280_temperature;BME280_humidity;BME280_pressure;Samples;Min_cycle;Max_cycle;Signal;HPM_P1;HPM_P2
2023/12/02 00:01:55;;;;;;;2.85;1.23;;;-0.80;90.80;;;;;;5135069;27;20046;-72
2023/12/02 00:04:21;;;;;;;3.15;1.52;;;-0.80;90.80;;;;;;5136657;27;20043;-72
2023/12/02 00:06:47;;;;;;;4.55;1.70;;;-0.80;90.80;;;;;;5114191;28;20055;-71
2023/12/02 00:09:12;;;;;;;2.33;1.13;;;-0.80;90.80;;;;;;5114077;28;20047;-71
2023/12/02 00:11:38;;;;;;;2.22;0.90;;;-0.80;90.80;;;;;;5097181;28;20556;-72
2023/12/02 00:14:04;;;;;;;2.80;1.15;;;-0.80;90.80;;;;;;5132574;27;20043;-71
2023/12/02 00:16:29;;;;;;;3.78;1.50;;;-0.80;90.80;;;;;;5100699;28;20042;-72
2023/12/02 00:18:55;;;;;;;3.95;1.75;;;-0.80;90.80;;;;;;5117587;27;20502;-71
2023/12/02 00:21:21;;;;;;;3.78;1.45;;;-0.80;90.80;;;;;;5136074;27;20043;-72
2023/12/02 00:23:47;;;;;;;2.88;1.10;;;-0.80;90.80;;;;;;5136017;27;20046;-72
2023/12/02 00:26:13;;;;;;;3.17;1.30;;;-0.80;90.80;;;;;;5117583;27;20039;-72
2023/12/02 00:28:38;;;;;;;2.25;1.08;;;-0.80;90.80;;;;;;5100308;27;20134;-71
2023/12/02 00:31:04;;;;;;;3.10;1.50;;;-0.80;90.80;;;;;;5136177;27;20363;-72
2023/12/02 00:33:30;;;;;;;1.92;1.10;;;-0.80;90.80;;;;;;5135787;27;20470;-72
2023/12/02 00:35:56;;;;;;;3.15;1.33;;;-0.80;90.80;;;;;;5113865;28;20043;-72
2023/12/02 00:38:22;;;;;;;2.58;1.23;;;-0.80;90.80;;;;;;5126362;27;20051;-72
2023/12/02 00:40:48;;;;;;;2.30;1.00;;;-0.80;90.80;;;;;;5135619;27;20085;-72
2023/12/02 00:43:17;;;;;;;2.38;1.00;;;-0.80;90.80;;;;;;5117102;28;20047;-72
2023/12/02 00:45:42;;;;;;;1.90;1.15;;;-0.80;90.80;;;;;;5113617;28;20052;-72
2023/12/02 00:48:08;;;;;;;2.75;1.25;;;-0.80;90.80;;;;;;5115374;28;20043;-72
2023/12/02 00:50:34;;;;;;;2.35;1.20;;;-0.80;90.80;;;;;;5113531;28;20039;-72
2023/12/02 00:53:00;;;;;;;2.42;1.00;;;-0.80;90.80;;;;;;5096494;28;20040;-71
2023/12/02 00:55:25;;;;;;;2.22;0.98;;;-0.80;90.80;;;;;;5114785;28;20499;-72
2023/12/02 00:57:51;;;;;;;2.85;1.10;;;-0.80;90.80;;;;;;5113665;28;20510;-71
2023/12/02 01:00:17;;;;;;;2.15;1.17;;;-0.80;90.80;;;;;;5126794;27;20057;-71
2023/12/02 01:02:43;;;;;;;3.60;1.30;;;-0.80;90.80;;;;;;5096176;28;20039;-71
2023/12/02 01:05:09;;;;;;;2.80;1.20;;;-0.90;90.80;;;;;;5096035;28;20047;-72
2023/12/02 01:07:35;;;;;;;2.67;1.20;;;-0.90;90.80;;;;;;5113081;28;20541;-72
2023/12/02 01:10:01;;;;;;;2.15;1.15;;;-0.80;90.80;;;;;;5130828;27;20035;-72
2023/12/02 01:12:29;;;;;;;1.98;1.10;;;-0.80;90.80;;;;;;5133180;27;20035;-72
2023/12/02 01:14:55;;;;;;;3.67;1.48;;;-0.90;90.80;;;;;;5099769;27;20043;-72
2023/12/02 01:17:21;;;;;;;3.45;1.70;;;-0.80;90.80;;;;;;5099249;27;20505;-72
2023/12/02 01:19:47;;;;;;;1.83;0.93;;;-0.90;90.80;;;;;;5134968;27;20081;-72
2023/12/02 01:22:12;;;;;;;3.00;1.33;;;-0.90;90.80;;;;;;5134958;27;20039;-72
2023/12/02 01:24:38;;;;;;;2.53;1.20;;;-0.90;90.80;;;;;;5135150;27;20039;-72
2023/12/02 01:27:04;;;;;;;3.22;1.50;;;-0.90;90.80;;;;;;5134660;27;20379;-72
2023/12/02 01:29:30;;;;;;;2.60;1.08;;;-0.90;90.80;;;;;;5134330;27;20474;-72
2023/12/02 01:32:00;;;;;;;2.83;1.40;;;-0.90;90.80;;;;;;5135182;27;20035;-72
2023/12/02 01:34:25;;;;;;;2.50;1.02;;;-0.90;90.80;;;;;;5116471;27;20462;-72
2023/12/02 01:36:51;;;;;;;2.80;1.25;;;-0.90;91.10;;;;;;5116218;27;20120;-72
2023/12/02 01:39:17;;;;;;;2.72;1.20;;;-0.90;90.80;;;;;;5134872;27;20038;-71
2023/12/02 01:41:42;;;;;;;2.92;1.20;;;-0.90;90.80;;;;;;5116062;27;20035;-74
2023/12/02 01:44:11;;;;;;;3.25;1.20;;;-0.90;90.80;;;;;;5098903;27;20426;-71
2023/12/02 01:46:37;;;;;;;2.53;1.08;;;-1.00;90.80;;;;;;5115772;28;20067;-72
2023/12/02 01:49:03;;;;;;;1.77;0.82;;;-0.90;90.80;;;;;;5134338;27;20058;-72
2023/12/02 01:51:29;;;;;;;3.25;1.20;;;-1.00;90.80;;;;;;5134454;27;20062;-72
2023/12/02 01:53:55;;;;;;;1.52;0.88;;;-0.90;90.80;;;;;;5134482;27;20039;-71
2023/12/02 01:56:21;;;;;;;2.72;0.90;;;-0.90;90.80;;;;;;5134659;27;20046;-72
2023/12/02 01:58:47;;;;;;;2.10;1.00;;;-0.90;90.80;;;;;;5134732;27;20031;-72
2023/12/02 02:01:13;;;;;;;3.05;1.10;;;-0.90;90.80;;;;;;5134653;27;20131;-71
2023/12/02 02:03:39;;;;;;;1.33;1.00;;;-0.90;90.80;;;;;;5133995;27;20126;-72
2023/12/02 02:06:08;;;;;;;2.35;1.00;;;-1.00;90.80;;;;;;5133755;27;20043;-72
2023/12/02 02:08:34;;;;;;;1.77;0.82;;;-0.80;90.90;;;;;;5115363;27;20039;-71
2023/12/02 02:11:00;;;;;;;3.05;1.00;;;-0.90;90.80;;;;;;5133921;27;20351;-72
2023/12/02 02:13:26;;;;;;;2.55;1.00;;;-0.90;90.80;;;;;;5134016;27;20043;-72
2023/12/02 02:15:52;;;;;;;1.65;0.90;;;-0.90;90.80;;;;;;5133981;27;20486;-72
2023/12/02 02:18:18;;;;;;;2.28;1.08;;;-0.90;90.80;;;;;;5115975;27;20042;-71
2023/12/02 02:20:50;;;;;;;1.55;0.73;;;-0.90;90.80;;;;;;5133587;27;20042;-71
2023/12/02 02:23:17;;;;;;;2.60;1.08;;;-0.90;90.80;;;;;;5133572;27;20118;-71
2023/12/02 02:25:43;;;;;;;1.88;1.00;;;-0.90;90.80;;;;;;5133725;27;20100;-71
2023/12/02 02:28:09;;;;;;;2.08;0.90;;;-0.90;90.80;;;;;;5134022;27;20043;-71
2023/12/02 02:30:34;;;;;;;1.58;0.60;;;-0.90;90.80;;;;;;5133697;27;20035;-72
2023/12/02 02:33:01;;;;;;;1.85;0.80;;;-0.90;90.80;;;;;;5133556;27;20428;-71
2023/12/02 02:35:26;;;;;;;1.70;0.93;;;-0.90;90.70;;;;;;5115881;28;20043;-72
2023/12/02 02:37:52;;;;;;;2.78;1.00;;;-0.90;90.70;;;;;;5134080;27;20053;-72
2023/12/02 02:40:19;;;;;;;1.70;0.90;;;-0.90;90.70;;;;;;5115109;28;20043;-72
2023/12/02 02:42:44;;;;;;;2.05;0.90;;;-0.90;90.70;;;;;;5115308;28;20043;-72
2023/12/02 02:45:10;;;;;;;2.72;1.08;;;-0.80;90.80;;;;;;5111500;28;20047;-72
2023/12/02 02:47:37;;;;;;;1.58;0.70;;;-0.90;90.70;;;;;;5119403;27;20043;-72
2023/12/02 02:50:02;;;;;;;1.70;0.75;;;-0.80;90.70;;;;;;5115001;27;20107;-72
2023/12/02 02:52:29;;;;;;;1.40;0.70;;;-0.80;90.70;;;;;;5094644;28;20490;-71
2023/12/02 02:54:55;;;;;;;1.65;0.60;;;-0.80;90.70;;;;;;5111936;28;20403;-71
2023/12/02 02:57:22;;;;;;;2.08;0.90;;;-0.80;90.70;;;;;;5132522;27;20050;-71
2023/12/02 02:59:48;;;;;;;1.80;0.70;;;-0.80;90.70;;;;;;5133275;27;20039;-71
2023/12/02 03:02:14;;;;;;;2.25;1.10;;;-0.80;90.80;;;;;;5111371;28;20066;-71
2023/12/02 03:04:39;;;;;;;1.92;0.93;;;-0.80;90.80;;;;;;5112757;28;20047;-71
2023/12/02 03:07:05;;;;;;;1.30;0.80;;;-0.70;90.80;;;;;;5112670;28;20468;-72
2023/12/02 03:09:31;;;;;;;1.83;0.82;;;-0.80;90.80;;;;;;5111135;28;20109;-72
2023/12/02 03:11:56;;;;;;;1.23;0.75;;;-0.80;90.80;;;;;;5111326;28;20074;-72
2023/12/02 03:14:22;;;;;;;1.27;0.75;;;-0.80;90.80;;;;;;5112401;28;20043;-72
2023/12/02 03:16:48;;;;;;;1.70;0.70;;;-0.70;90.80;;;;;;5112889;28;20039;-71
2023/12/02 03:19:14;;;;;;;1.60;0.73;;;-0.80;90.80;;;;;;5112170;28;20483;-72
2023/12/02 03:21:40;;;;;;;1.65;0.85;;;-0.80;90.80;;;;;;5132885;27;20536;-71
2023/12/02 03:24:06;;;;;;;1.60;0.93;;;-0.80;90.70;;;;;;5114527;28;20039;-71
2023/12/02 03:26:35;;;;;;;1.92;0.93;;;-0.80;90.70;;;;;;5132859;27;20031;-72
2023/12/02 03:29:00;;;;;;;1.52;0.85;;;-0.80;90.70;;;;;;5114152;28;20533;-71
2023/12/02 03:31:26;;;;;;;2.63;1.00;;;-0.80;90.70;;;;;;5114154;27;20035;-72
2023/12/02 03:33:52;;;;;;;2.67;1.17;;;-0.80;90.70;;;;;;5132630;27;20479;-72
2023/12/02 03:36:18;;;;;;;1.00;0.70;;;-0.80;90.70;;;;;;5095158;28;20441;-72
2023/12/02 03:38:43;;;;;;;2.90;1.20;;;-0.80;90.70;;;;;;5117367;27;20517;-72
2023/12/02 03:41:09;;;;;;;2.03;0.90;;;-0.80;90.70;;;;;;5100697;27;20069;-72
2023/12/02 03:43:35;;;;;;;2.45;1.00;;;-0.80;90.70;;;;;;5117733;27;20031;-71
2023/12/02 03:46:02;;;;;;;2.55;1.10;;;-0.80;90.80;;;;;;5136124;27;20047;-72
2023/12/02 03:48:30;;;;;;;1.40;0.80;;;-0.70;90.80;;;;;;5097512;28;20475;-72
2023/12/02 03:51:00;;;;;;;2.55;1.00;;;-0.80;90.70;;;;;;5114775;28;20060;-72
2023/12/02 03:53:25;;;;;;;2.55;1.08;;;-0.80;90.80;;;;;;5093258;28;20032;-72
2023/12/02 03:55:53;;;;;;;1.88;1.02;;;-0.80;90.80;;;;;;5093016;28;20047;-72
2023/12/02 03:58:20;;;;;;;2.40;1.02;;;-0.70;90.80;;;;;;5092984;28;20497;-72
2023/12/02 04:00:46;;;;;;;2.25;0.90;;;-0.70;90.80;;;;;;5075850;28;20627;-71
2023/12/02 04:03:12;;;;;;;1.85;0.80;;;-0.70;90.80;;;;;;5075713;28;20071;-71
2023/12/02 04:05:38;;;;;;;2.10;0.90;;;-0.70;90.70;;;;;;5093436;28;20091;-72
2023/12/02 04:08:04;;;;;;;2.70;1.10;;;-0.70;90.80;;;;;;5092781;28;20044;-71
2023/12/02 04:10:30;;;;;;;1.60;0.93;;;-0.80;90.80;;;;;;5093031;28;20139;-72
2023/12/02 04:12:56;;;;;;;2.58;1.20;;;-0.90;90.70;;;;;;5075626;28;20040;-72
2023/12/02 04:15:22;;;;;;;2.00;1.08;;;-0.80;90.80;;;;;;5093235;28;20047;-72
2023/12/02 04:17:47;;;;;;;2.90;1.00;;;-0.80;90.80;;;;;;5092732;28;20056;-71
2023/12/02 04:20:15;;;;;;;2.38;0.90;;;-0.80;90.80;;;;;;5092961;28;20514;-72
2023/12/02 04:22:41;;;;;;;1.90;0.95;;;-0.90;90.80;;;;;;5092635;28;20059;-71
2023/12/02 04:25:07;;;;;;;3.33;1.08;;;-0.90;90.80;;;;;;5109656;28;20044;-71
2023/12/02 04:27:33;;;;;;;2.35;1.00;;;-1.00;90.80;;;;;;5132756;27;20115;-71
2023/12/02 04:29:59;;;;;;;2.20;0.70;;;-0.90;90.80;;;;;;5135535;27;20081;-71
2023/12/02 04:32:25;;;;;;;1.75;1.10;;;-0.90;90.90;;;;;;5117231;27;20047;-71
2023/12/02 04:34:50;;;;;;;2.17;0.82;;;-1.00;90.80;;;;;;5135406;27;20050;-72
2023/12/02 04:37:17;;;;;;;2.60;0.80;;;-1.00;90.90;;;;;;5135591;27;20035;-72
2023/12/02 04:39:43;;;;;;;1.95;0.82;;;-1.00;90.90;;;;;;5135328;27;20043;-71
2023/12/02 04:42:09;;;;;;;1.70;0.73;;;-1.00;91.10;;;;;;5135314;27;20050;-72
2023/12/02 04:44:35;;;;;;;2.75;1.10;;;-1.00;91.00;;;;;;5117151;27;20048;-71
2023/12/02 04:47:01;;;;;;;1.30;0.90;;;-1.00;90.90;;;;;;5116664;28;20039;-71
2023/12/02 04:49:26;;;;;;;3.25;1.25;;;-1.00;90.90;;;;;;5116760;28;20501;-71
2023/12/02 04:51:52;;;;;;;2.47;1.10;;;-1.00;90.90;;;;;;5116838;27;20066;-69
2023/12/02 04:54:19;;;;;;;2.50;0.95;;;-1.00;91.00;;;;;;5113312;28;20138;-70
2023/12/02 04:56:45;;;;;;;3.67;1.20;;;-1.00;91.00;;;;;;5113149;28;20044;-70
2023/12/02 04:59:11;;;;;;;1.50;0.82;;;-1.00;91.00;;;;;;5114904;28;20046;-70
2023/12/02 05:01:37;;;;;;;1.45;0.80;;;-1.00;90.90;;;;;;5113829;27;20047;-70
2023/12/02 05:04:03;;;;;;;2.03;0.90;;;-1.00;90.90;;;;;;5117340;28;20433;-70
2023/12/02 05:06:28;;;;;;;1.77;0.90;;;-1.00;90.90;;;;;;5116981;28;20084;-70
2023/12/02 05:08:54;;;;;;;2.72;1.00;;;-1.00;90.90;;;;;;5099479;27;20039;-70
2023/12/02 05:11:21;;;;;;;1.85;0.90;;;-1.10;90.90;;;;;;5117193;27;20039;-69
2023/12/02 05:13:48;;;;;;;2.47;1.08;;;-1.10;90.90;;;;;;5113160;28;20035;-70
2023/12/02 05:16:14;;;;;;;1.92;0.80;;;-1.10;90.90;;;;;;5128618;27;20398;-70
2023/12/02 05:18:41;;;;;;;1.73;0.88;;;-1.10;91.00;;;;;;5135209;27;20490;-69
2023/12/02 05:21:07;;;;;;;2.58;0.90;;;-1.10;91.00;;;;;;5116585;27;20043;-69
2023/12/02 05:23:33;;;;;;;3.13;1.27;;;-1.00;91.00;;;;;;5134868;27;20050;-70
2023/12/02 05:25:58;;;;;;;2.20;1.02;;;-1.10;90.90;;;;;;5134848;27;20043;-70
2023/12/02 05:28:24;;;;;;;1.90;0.90;;;-1.00;90.90;;;;;;5135113;27;20027;-70
2023/12/02 05:30:50;;;;;;;2.03;0.88;;;-1.00;90.90;;;;;;5113077;28;20043;-70
2023/12/02 05:33:17;;;;;;;2.60;1.00;;;-1.00;90.90;;;;;;5116474;28;20035;-70
2023/12/02 05:35:43;;;;;;;1.80;0.95;;;-1.00;90.90;;;;;;5134993;27;20035;-70
2023/12/02 05:38:09;;;;;;;2.60;0.93;;;-1.00;90.90;;;;;;5099545;28;20088;-70
2023/12/02 05:40:34;;;;;;;2.38;0.85;;;-1.00;90.90;;;;;;5134488;27;20051;-70
2023/12/02 05:43:00;;;;;;;1.83;1.00;;;-1.10;90.90;;;;;;5134227;27;20147;-69
2023/12/02 05:45:26;;;;;;;2.25;1.10;;;-1.10;90.90;;;;;;5116103;27;20100;-70
2023/12/02 05:47:51;;;;;;;2.35;1.00;;;-1.10;90.90;;;;;;5116156;28;20043;-70
2023/12/02 05:50:17;;;;;;;2.80;0.90;;;-1.10;90.90;;;;;;5098910;27;20086;-70
2023/12/02 05:52:43;;;;;;;1.52;0.90;;;-1.10;90.90;;;;;;5134280;27;20086;-69
2023/12/02 05:55:09;;;;;;;2.22;0.95;;;-1.00;90.90;;;;;;5112499;28;20055;-70
2023/12/02 05:57:34;;;;;;;1.38;0.77;;;-1.00;90.90;;;;;;5125819;27;20031;-71
2023/12/02 06:00:00;;;;;;;2.45;1.10;;;-1.00;90.80;;;;;;5098477;27;20039;-71
2023/12/02 06:02:26;;;;;;;2.10;0.90;;;-1.00;90.80;;;;;;5134279;27;20180;-71
2023/12/02 06:04:51;;;;;;;1.88;0.80;;;-1.00;90.80;;;;;;5133988;27;20043;-70
2023/12/02 06:07:17;;;;;;;2.47;1.00;;;-1.00;90.80;;;;;;5115859;27;20050;-71
2023/12/02 06:09:43;;;;;;;2.13;0.80;;;-1.00;90.80;;;;;;5112313;28;20050;-72
2023/12/02 06:12:10;;;;;;;2.05;0.80;;;-1.00;90.80;;;;;;5112317;28;20498;-71
2023/12/02 06:14:35;;;;;;;2.28;1.20;;;-1.00;90.80;;;;;;5113480;28;20152;-71
2023/12/02 06:17:01;;;;;;;1.88;0.80;;;-1.00;90.80;;;;;;5127294;27;20499;-71
2023/12/02 06:19:29;;;;;;;2.65;0.95;;;-1.00;90.80;;;;;;5116095;27;20124;-72
2023/12/02 06:21:54;;;;;;;2.15;0.80;;;-1.00;90.80;;;;;;5134485;27;20035;-71
2023/12/02 06:24:21;;;;;;;1.92;0.70;;;-0.90;90.80;;;;;;5112637;28;20368;-71
2023/12/02 06:26:46;;;;;;;2.58;0.88;;;-1.00;90.80;;;;;;5113814;28;20044;-71
2023/12/02 06:29:12;;;;;;;2.80;0.98;;;-1.00;90.80;;;;;;5132787;27;20042;-71
2023/12/02 06:31:38;;;;;;;3.25;1.30;;;-1.00;90.80;;;;;;5115336;27;20402;-71
2023/12/02 06:34:04;;;;;;;2.97;1.30;;;-1.00;90.80;;;;;;5098345;27;20122;-71
2023/12/02 06:36:30;;;;;;;2.20;1.20;;;-1.00;90.80;;;;;;5133687;27;20125;-71
2023/12/02 06:38:59;;;;;;;2.58;1.30;;;-1.00;90.80;;;;;;5115090;28;20039;-71
2023/12/02 06:41:25;;;;;;;2.67;1.00;;;-1.10;90.80;;;;;;5133519;27;20039;-71
2023/12/02 06:43:51;;;;;;;2.63;1.33;;;-1.10;90.80;;;;;;5133374;27;20509;-71
2023/12/02 06:46:21;;;;;;;3.38;1.40;;;-1.10;90.80;;;;;;5098254;28;20049;-71
2023/12/02 06:48:48;;;;;;;2.00;1.00;;;-1.10;90.80;;;;;;5115136;28;20039;-71
2023/12/02 06:51:13;;;;;;;2.38;1.00;;;-1.10;90.80;;;;;;5133866;27;20394;-70
2023/12/02 06:53:40;;;;;;;3.03;1.33;;;-1.10;90.80;;;;;;5133872;27;20047;-70
2023/12/02 06:56:17;;;;;;;2.08;1.00;;;-1.10;90.80;;;;;;5114940;27;20047;-70
2023/12/02 06:58:42;;;;;;;2.13;1.08;;;-1.10;90.90;;;;;;5133262;27;20068;-71
2023/12/02 07:01:08;;;;;;;2.65;1.13;;;-1.10;91.20;;;;;;5133450;27;20415;-71
2023/12/02 07:03:34;;;;;;;3.35;1.13;;;-1.10;90.90;;;;;;5133008;27;20051;-71
2023/12/02 07:05:59;;;;;;;2.22;1.00;;;-1.00;90.90;;;;;;5133390;27;20035;-71
2023/12/02 07:08:25;;;;;;;1.27;0.75;;;-1.10;90.80;;;;;;5133318;27;20039;-71
2023/12/02 07:10:51;;;;;;;2.63;1.20;;;-1.10;90.80;;;;;;5133050;27;20065;-71
2023/12/02 07:13:17;;;;;;;3.03;1.15;;;-1.00;90.80;;;;;;5097885;27;20039;-71
2023/12/02 07:15:42;;;;;;;2.53;1.27;;;-1.00;90.80;;;;;;5133217;27;20039;-71
2023/12/02 07:18:08;;;;;;;3.15;1.40;;;-1.00;91.00;;;;;;5114982;28;20051;-71
2023/12/02 07:20:33;;;;;;;2.25;1.08;;;-1.00;90.70;;;;;;5114816;28;20399;-71
2023/12/02 07:23:00;;;;;;;3.20;1.27;;;-1.00;90.80;;;;;;5133513;27;20071;-71
2023/12/02 07:25:25;;;;;;;2.50;1.20;;;-1.00;90.80;;;;;;5097878;28;20046;-72
2023/12/02 07:27:51;;;;;;;2.45;1.17;;;-0.90;90.80;;;;;;5133304;27;20043;-71
2023/12/02 07:30:17;;;;;;;3.45;1.13;;;-1.00;90.80;;;;;;5132970;27;20486;-70
2023/12/02 07:32:46;;;;;;;2.90;1.25;;;-1.00;90.80;;;;;;5115075;27;20043;-71
2023/12/02 07:35:11;;;;;;;2.38;1.05;;;-1.00;90.80;;;;;;5097933;28;20052;-70
2023/12/02 07:37:37;;;;;;;2.83;1.20;;;-0.90;90.80;;;;;;5110878;28;20148;-71
2023/12/02 07:40:04;;;;;;;3.20;1.20;;;-0.90;90.80;;;;;;5069814;28;20411;-71
2023/12/02 07:42:29;;;;;;;1.80;1.00;;;-1.10;90.80;;;;;;5069969;28;20046;-71
2023/12/02 07:44:55;;;;;;;2.40;1.10;;;-1.00;90.80;;;;;;5052629;28;20496;-71
2023/12/02 07:47:23;;;;;;;3.40;1.17;;;-1.00;90.80;;;;;;5068255;28;20405;-71
2023/12/02 07:49:49;;;;;;;2.17;1.02;;;-0.90;90.80;;;;;;5051111;28;20141;-70
2023/12/02 07:52:14;;;;;;;3.00;1.20;;;-0.90;90.80;;;;;;5069945;28;20123;-71
2023/12/02 07:54:40;;;;;;;2.88;1.20;;;-0.90;90.70;;;;;;5069597;28;20519;-70
2023/12/02 07:57:06;;;;;;;2.42;1.10;;;-0.90;90.70;;;;;;5069486;28;20040;-70
2023/12/02 07:59:31;;;;;;;1.63;0.95;;;-0.90;90.70;;;;;;5069384;28;20535;-73
2023/12/02 08:02:00;;;;;;;2.80;1.00;;;-0.90;90.70;;;;;;5067301;28;20603;-71
2023/12/02 08:04:25;;;;;;;2.55;1.00;;;-0.90;90.70;;;;;;5069419;28;20162;-71
2023/12/02 08:06:51;;;;;;;2.08;1.00;;;-0.90;90.70;;;;;;5069731;28;20464;-71
2023/12/02 08:09:17;;;;;;;3.05;1.10;;;-0.90;90.70;;;;;;5052778;28;20043;-70
2023/12/02 08:11:42;;;;;;;3.15;1.30;;;-0.90;90.80;;;;;;5103254;28;20040;-70
2023/12/02 08:14:08;;;;;;;1.85;0.90;;;-0.90;90.70;;;;;;5093900;28;20047;-70
2023/12/02 08:16:34;;;;;;;2.13;1.13;;;-0.90;90.80;;;;;;5111917;28;20051;-70
2023/12/02 08:18:59;;;;;;;2.53;1.30;;;-0.80;90.80;;;;;;5113612;28;20043;-70
2023/12/02 08:21:25;;;;;;;1.77;0.90;;;-0.90;90.80;;;;;;5132661;27;20159;-71
2023/12/02 08:23:51;;;;;;;2.33;1.00;;;-0.90;90.80;;;;;;5135758;27;20039;-71
2023/12/02 08:26:16;;;;;;;2.55;1.08;;;-0.90;90.80;;;;;;5136306;27;20066;-70
2023/12/02 08:28:46;;;;;;;2.72;1.30;;;-0.90;90.80;;;;;;5113803;28;20043;-70
2023/12/02 08:31:12;;;;;;;2.85;1.10;;;-0.80;90.80;;;;;;5081036;28;20046;-70
2023/12/02 08:33:37;;;;;;;3.08;1.40;;;-0.80;90.80;;;;;;5115415;28;20109;-70
2023/12/02 08:36:04;;;;;;;3.20;1.40;;;-0.80;90.80;;;;;;5113721;28;20495;-71
2023/12/02 08:38:30;;;;;;;2.90;1.20;;;-0.80;90.80;;;;;;5114446;28;20043;-71
2023/12/02 08:40:56;;;;;;;3.15;1.33;;;-0.70;90.70;;;;;;5136015;27;20038;-70
2023/12/02 08:43:21;;;;;;;2.47;1.30;;;-0.70;90.70;;;;;;5135406;27;20031;-70
2023/12/02 08:45:47;;;;;;;3.67;1.40;;;-0.70;90.70;;;;;;5135860;27;20444;-70
2023/12/02 08:48:13;;;;;;;2.55;1.35;;;-0.60;90.70;;;;;;5135520;27;20050;-71
2023/12/02 08:50:38;;;;;;;3.22;1.40;;;-0.60;90.70;;;;;;5135473;27;20073;-70
2023/12/02 08:53:04;;;;;;;2.90;1.20;;;-0.60;90.60;;;;;;5135544;27;20495;-71
2023/12/02 08:55:30;;;;;;;2.90;1.38;;;-0.60;90.60;;;;;;5113420;28;20054;-71
2023/12/02 08:57:55;;;;;;;3.20;1.40;;;-0.50;90.60;;;;;;5123201;27;20032;-71
2023/12/02 09:00:21;;;;;;;2.75;1.38;;;-0.50;90.60;;;;;;5135721;27;20082;-71
2023/12/02 09:02:47;;;;;;;2.58;1.33;;;-0.50;90.60;;;;;;5117008;27;20043;-71
2023/12/02 09:05:13;;;;;;;3.67;1.58;;;-0.50;90.50;;;;;;5135677;27;20043;-70
2023/12/02 09:07:38;;;;;;;4.05;1.85;;;-0.40;90.50;;;;;;5116595;27;20043;-71
2023/12/02 09:10:05;;;;;;;3.85;1.50;;;-0.30;90.50;;;;;;5135741;27;20073;-71
2023/12/02 09:12:31;;;;;;;3.65;1.52;;;-0.30;90.50;;;;;;5135249;27;20039;-71
2023/12/02 09:15:06;;;;;;;3.55;1.60;;;-0.30;90.40;;;;;;5113761;28;20073;-71
2023/12/02 09:18:11;;;;;;;3.75;1.90;;;-0.30;90.40;;;;;;5133515;27;20150;-71
2023/12/02 09:20:51;;;;;;;4.57;1.70;;;-0.20;90.40;;;;;;5113503;28;20055;-71
2023/12/02 09:23:18;;;;;;;4.43;1.65;;;-0.10;90.30;;;;;;5121315;27;20039;-71
2023/12/02 09:25:45;;;;;;;3.28;1.60;;;-0.10;90.30;;;;;;5116294;28;20047;-70
2023/12/02 09:28:15;;;;;;;3.38;1.45;;;-0.10;90.30;;;;;;5096246;28;20475;-71
2023/12/02 09:30:50;;;;;;;3.70;1.90;;;-0.10;90.30;;;;;;5113019;28;20452;-71
2023/12/02 09:33:16;;;;;;;3.80;1.75;;;-0.10;90.30;;;;;;5111948;28;20043;-71
2023/12/02 09:35:42;;;;;;;4.28;1.73;;;-0.10;90.30;;;;;;5114181;28;20061;-71
2023/12/02 09:38:08;;;;;;;4.40;1.45;;;-0.10;90.30;;;;;;5131585;27;20050;-71
2023/12/02 09:41:04;;;;;;;2.65;1.27;;;-0.10;90.30;;;;;;5117198;27;20035;-71
2023/12/02 09:43:41;;;;;;;3.83;1.65;;;-0.10;90.40;;;;;;5130936;27;20548;-70
2023/12/02 09:46:40;;;;;;;3.28;1.50;;;-0.10;90.40;;;;;;5135004;27;20043;-70
2023/12/02 09:49:34;;;;;;;3.45;1.70;;;-0.10;90.30;;;;;;5134630;27;20402;-70
2023/12/02 09:52:21;;;;;;;3.10;1.67;;;-0.10;90.30;;;;;;5111488;28;20041;-70
2023/12/02 09:55:08;;;;;;;4.47;1.70;;;-0.10;90.40;;;;;;5124127;27;20039;-70
2023/12/02 09:57:45;;;;;;;3.15;1.40;;;-0.20;90.40;;;;;;5134170;27;20051;-71
2023/12/02 10:00:41;;;;;;;2.92;1.35;;;-0.20;90.50;;;;;;5134226;27;20047;-70
2023/12/02 10:03:42;;;;;;;3.40;1.60;;;-0.10;90.60;;;;;;5131927;27;20042;-70
2023/12/02 10:06:32;;;;;;;4.45;1.80;;;-0.10;90.50;;;;;;5114811;27;20457;-71
2023/12/02 10:09:24;;;;;;;3.85;1.60;;;0.10;90.50;;;;;;5116898;27;20063;-71
2023/12/02 10:12:07;;;;;;;3.97;1.88;;;0.10;90.40;;;;;;5118800;27;20039;-71
2023/12/02 10:14:38;;;;;;;4.47;1.98;;;0.20;90.40;;;;;;5116945;28;20054;-71
2023/12/02 10:17:08;;;;;;;4.90;2.15;;;0.20;90.40;;;;;;5133919;27;20057;-71
2023/12/02 10:19:43;;;;;;;5.00;2.40;;;0.20;90.20;;;;;;5133972;27;20041;-70
2023/12/02 10:22:10;;;;;;;4.43;2.08;;;0.30;90.20;;;;;;5134287;27;20521;-71
2023/12/02 10:24:54;;;;;;;4.53;2.00;;;0.40;90.50;;;;;;5133700;27;20085;-71
2023/12/02 10:27:22;;;;;;;5.45;2.17;;;0.40;90.20;;;;;;5133928;27;20065;-70
2023/12/02 10:30:09;;;;;;;5.15;2.35;;;0.40;90.10;;;;;;5134526;27;20061;-70
2023/12/02 10:32:53;;;;;;;4.60;2.10;;;0.40;90.10;;;;;;5110409;28;20039;-71
2023/12/02 10:35:36;;;;;;;5.38;2.17;;;0.50;90.20;;;;;;5094408;28;20062;-72
2023/12/02 10:38:24;;;;;;;4.65;2.10;;;0.50;90.10;;;;;;5131647;27;20062;-71
2023/12/02 10:41:16;;;;;;;5.25;2.40;;;0.50;90.10;;;;;;5129715;27;20093;-71
2023/12/02 10:43:42;;;;;;;4.22;1.95;;;0.50;90.20;;;;;;5133431;27;20039;-71
2023/12/02 10:46:10;;;;;;;5.72;2.58;;;0.50;90.10;;;;;;5115010;28;20064;-71
2023/12/02 10:48:37;;;;;;;5.78;2.70;;;0.50;90.20;;;;;;5134202;27;20036;-71
2023/12/02 10:51:03;;;;;;;4.97;2.40;;;0.60;90.20;;;;;;5133838;27;20039;-71
2023/12/02 10:53:34;;;;;;;6.85;2.88;;;0.60;90.20;;;;;;5133289;27;20039;-71
2023/12/02 10:56:05;;;;;;;4.75;2.00;;;0.70;90.10;;;;;;5134065;27;21016;-72
2023/12/02 10:58:32;;;;;;;5.35;2.47;;;0.80;90.10;;;;;;5132872;27;20468;-73
2023/12/02 11:01:04;;;;;;;5.45;2.40;;;0.80;90.10;;;;;;5112204;28;20479;-73
2023/12/02 11:03:43;;;;;;;6.80;3.08;;;0.90;90.00;;;;;;5112679;28;20160;-73
2023/12/02 11:06:43;;;;;;;6.60;3.03;;;0.90;90.00;;;;;;5122780;27;20405;-73
2023/12/02 11:09:21;;;;;;;4.82;2.20;;;0.90;90.00;;;;;;5114996;28;20461;-73
2023/12/02 11:12:06;;;;;;;5.75;2.72;;;0.90;90.00;;;;;;5133197;27;20185;-73
2023/12/02 11:14:39;;;;;;;5.47;2.67;;;0.90;90.00;;;;;;5133098;27;20051;-73
2023/12/02 11:17:20;;;;;;;5.45;2.38;;;0.90;90.00;;;;;;5115458;27;20447;-73
2023/12/02 11:20:05;;;;;;;5.07;2.28;;;1.00;90.00;;;;;;5131211;27;20397;-74
2023/12/02 11:23:10;;;;;;;4.65;2.50;;;1.00;90.00;;;;;;5114563;27;20053;-74
2023/12/02 11:26:00;;;;;;;4.30;1.98;;;1.00;90.00;;;;;;5131973;27;20088;-73
2023/12/02 11:28:51;;;;;;;5.13;2.03;;;1.00;90.00;;;;;;5133057;27;20042;-73
2023/12/02 11:31:51;;;;;;;5.68;2.63;;;1.10;90.00;;;;;;5111126;28;20511;-74
2023/12/02 11:34:36;;;;;;;3.50;1.92;;;1.10;90.00;;;;;;5123311;27;20398;-73
2023/12/02 11:37:19;;;;;;;6.57;2.67;;;1.20;89.90;;;;;;5131216;27;20046;-74
2023/12/02 11:40:12;;;;;;;4.28;2.20;;;1.20;89.80;;;;;;5111197;28;20031;-73
2023/12/02 11:43:09;;;;;;;5.70;2.30;;;1.20;89.60;;;;;;5096251;28;20513;-74
2023/12/02 11:45:41;;;;;;;4.32;2.03;;;1.10;89.80;;;;;;5113298;27;20044;-74
2023/12/02 11:48:42;;;;;;;4.47;2.22;;;1.20;90.00;;;;;;5113990;27;20050;-74
2023/12/02 11:51:35;;;;;;;3.63;1.80;;;1.30;90.00;;;;;;5100101;27;20122;-74
2023/12/02 11:54:23;;;;;;;5.22;2.42;;;1.40;90.00;;;;;;5133327;27;20070;-74
2023/12/02 11:57:12;;;;;;;4.88;2.20;;;1.40;89.90;;;;;;5134040;27;20047;-74
2023/12/02 12:00:06;;;;;;;3.55;1.52;;;1.40;89.70;;;;;;5114097;28;20122;-74
2023/12/02 12:02:55;;;;;;;3.47;1.63;;;1.40;89.70;;;;;;5130117;27;20035;-72
2023/12/02 12:05:50;;;;;;;4.10;2.00;;;1.50;89.80;;;;;;5136329;27;20050;-74
2023/12/02 12:08:22;;;;;;;4.80;2.28;;;1.50;89.80;;;;;;5120886;27;20379;-74
2023/12/02 12:10:51;;;;;;;5.43;2.15;;;1.40;89.70;;;;;;5114355;28;20138;-75
2023/12/02 12:13:20;;;;;;;6.63;2.28;;;1.50;89.90;;;;;;5097621;28;20380;-74
2023/12/02 12:15:46;;;;;;;6.15;2.60;;;1.50;89.80;;;;;;5123286;27;20375;-75
2023/12/02 12:18:13;;;;;;;5.65;2.60;;;1.50;89.80;;;;;;5100562;27;20486;-74
2023/12/02 12:20:43;;;;;;;4.22;2.20;;;1.40;89.70;;;;;;5101104;27;20498;-74
2023/12/02 12:23:09;;;;;;;5.75;2.30;;;1.40;89.90;;;;;;5117450;27;20104;-74
2023/12/02 12:25:36;;;;;;;5.07;2.42;;;1.40;90.00;;;;;;5135780;27;20051;-74
2023/12/02 12:28:03;;;;;;;5.18;2.67;;;1.50;90.00;;;;;;5113940;28;20040;-74
2023/12/02 12:30:46;;;;;;;5.68;2.70;;;1.40;90.00;;;;;;5133490;27;20031;-75
2023/12/02 12:33:15;;;;;;;6.22;2.85;;;1.40;90.00;;;;;;5136012;27;20117;-74
2023/12/02 12:35:42;;;;;;;4.18;1.98;;;1.50;90.00;;;;;;5100450;27;20055;-75
2023/12/02 12:38:10;;;;;;;4.97;2.05;;;1.50;90.00;;;;;;5116971;27;20383;-75
2023/12/02 12:40:37;;;;;;;6.10;2.65;;;1.50;90.00;;;;;;5117587;27;20131;-74
2023/12/02 12:43:03;;;;;;;7.03;3.05;;;1.50;90.00;;;;;;5117602;27;20043;-74
2023/12/02 12:45:31;;;;;;;7.55;3.10;;;1.50;90.00;;;;;;5099966;27;20050;-74
2023/12/02 12:48:04;;;;;;;8.63;3.53;;;1.50;90.10;;;;;;5135317;27;20119;-75
2023/12/02 12:50:31;;;;;;;6.05;2.97;;;1.50;90.10;;;;;;5135340;27;20048;-74
2023/12/02 12:53:08;;;;;;;6.50;3.10;;;1.50;90.10;;;;;;5116933;27;20903;-75
2023/12/02 12:55:42;;;;;;;6.63;3.03;;;1.40;90.40;;;;;;5116725;28;20035;-75
2023/12/02 12:58:15;;;;;;;7.40;2.85;;;1.40;90.10;;;;;;5135266;27;20118;-74
2023/12/02 13:00:45;;;;;;;6.28;2.80;;;1.50;90.20;;;;;;5135583;27;20038;-75